sensor_id;sensor_type;location;lat;lon;timestamp;P1;durP1;ratioP1;P2;durP2;ratioP2
61840;SDS011;47773;53.174;6.614;2023-11-18T00:01:15;24.33;;;14.98;;
61840;SDS011;47773;53.174;6.614;2023-11-18T00:03:40;25.77;;;14.55;;
61840;SDS011;47773;53.174;6.614;2023-11-18T00:06:06;28.40;;;15.65;;
61840;SDS011;47773;53.174;6.614;2023-11-18T00:08:33;27.17;;;15.48;;
61840;SDS011;47773;53.174;6.614;2023-11-18T00:10:59;27.58;;;15.90;;
61840;SDS011;47773;53.174;6.614;2023-11-18T00:13:24;29.00;;;16.33;;
61840;SDS011;47773;53.174;6.614;2023-11-18T00:15:51;27.42;;;14.90;;
61840;SDS011;47773;53.174;6.614;2023-11-18T00:18:17;30.08;;;16.13;;
61840;SDS011;47773;53.174;6.614;2023-11-18T00:20:44;25.70;;;15.40;;
61840;SDS011;47773;53.174;6.614;2023-11-18T00:23:10;31.17;;;15.95;;
61840;SDS011;47773;53.174;6.614;2023-11-18T00:25:35;27.48;;;15.80;;
61840;SDS011;47773;53.174;6.614;2023-11-18T00:28:01;27.92;;;14.73;;
61840;SDS011;47773;53.174;6.614;2023-11-18T00:30:27;29.75;;;16.80;;
61840;SDS011;47773;53.174;6.614;2023-11-18T00:32:53;26.02;;;15.43;;
61840;SDS011;47773;53.174;6.614;2023-11-18T00:35:19;28.35;;;15.63;;
61840;SDS011;47773;53.174;6.614;2023-11-18T00:37:44;29.38;;;16.30;;
61840;SDS011;47773;53.174;6.614;2023-11-18T00:40:10;27.58;;;15.75;;
61840;SDS011;47773;53.174;6.614;2023-11-18T00:42:37;30.65;;;16.20;;
61840;SDS011;47773;53.174;6.614;2023-11-18T00:45:03;30.50;;;15.45;;
61840;SDS011;47773;53.174;6.614;2023-11-18T00:47:29;24.52;;;14.93;;
61840;SDS011;47773;53.174;6.614;2023-11-18T00:49:55;27.10;;;15.48;;
61840;SDS011;47773;53.174;6.614;2023-11-18T00:52:22;30.55;;;15.45;;
61840;SDS011;47773;53.174;6.614;2023-11-18T00:54:48;26.48;;;14.38;;
61840;SDS011;47773;53.174;6.614;2023-11-18T00:57:13;30.50;;;14.75;;
61840;SDS011;47773;53.174;6.614;2023-11-18T00:59:42;28.98;;;15.68;;
61840;SDS011;47773;53.174;6.614;2023-11-18T01:02:08;26.88;;;15.52;;
61840;SDS011;47773;53.174;6.614;2023-11-18T01:04:34;24.65;;;14.50;;
61840;SDS011;47773;53.174;6.614;2023-11-18T01:06:59;30.65;;;16.02;;
61840;SDS011;47773;53.174;6.614;2023-11-18T01:09:25;26.65;;;15.30;;
61840;SDS011;47773;53.174;6.614;2023-11-18T01:11:51;27.90;;;14.82;;
61840;SDS011;47773;53.174;6.614;2023-11-18T01:14:16;27.15;;;16.10;;
61840;SDS011;47773;53.174;6.614;2023-11-18T01:16:42;31.60;;;16.65;;
61840;SDS011;47773;53.174;6.614;2023-11-18T01:19:09;29.23;;;15.55;;
61840;SDS011;47773;53.174;6.614;2023-11-18T01:21:35;28.75;;;15.13;;
61840;SDS011;47773;53.174;6.614;2023-11-18T01:24:01;27.02;;;15.57;;
61840;SDS011;47773;53.174;6.614;2023-11-18T01:26:27;26.38;;;15.55;;
61840;SDS011;47773;53.174;6.614;2023-11-18T01:28:53;27.95;;;15.57;;
61840;SDS011;47773;53.174;6.614;2023-11-18T01:31:20;31.38;;;15.98;;
61840;SDS011;47773;53.174;6.614;2023-11-18T01:33:46;29.25;;;16.15;;
61840;SDS011;47773;53.174;6.614;2023-11-18T01:36:15;30.50;;;15.90;;
61840;SDS011;47773;53.174;6.614;2023-11-18T01:38:41;31.00;;;16.38;;
61840;SDS011;47773;53.174;6.614;2023-11-18T01:41:06;29.55;;;16.95;;
61840;SDS011;47773;53.174;6.614;2023-11-18T01:43:32;27.42;;;15.52;;
61840;SDS011;47773;53.174;6.614;2023-11-18T01:46:02;31.38;;;16.65;;
61840;SDS011;47773;53.174;6.614;2023-11-18T01:48:29;35.90;;;17.50;;
61840;SDS011;47773;53.174;6.614;2023-11-18T01:50:58;33.20;;;17.25;;
61840;SDS011;47773;53.174;6.614;2023-11-18T01:53:24;32.50;;;16.48;;
61840;SDS011;47773;53.174;6.614;2023-11-18T01:55:51;31.48;;;16.88;;
61840;SDS011;47773;53.174;6.614;2023-11-18T01:58:17;32.35;;;18.00;;
61840;SDS011;47773;53.174;6.614;2023-11-18T02:00:45;32.22;;;17.67;;
61840;SDS011;47773;53.174;6.614;2023-11-18T02:03:12;31.80;;;17.02;;
61840;SDS011;47773;53.174;6.614;2023-11-18T02:05:37;32.95;;;17.45;;
61840;SDS011;47773;53.174;6.614;2023-11-18T02:08:04;30.73;;;16.60;;
61840;SDS011;47773;53.174;6.614;2023-11-18T02:10:39;36.15;;;18.10;;
61840;SDS011;47773;53.174;6.614;2023-11-18T02:15:53;33.78;;;17.50;;
61840;SDS011;47773;53.174;6.614;2023-11-18T02:18:25;33.05;;;17.45;;
61840;SDS011;47773;53.174;6.614;2023-11-18T02:20:56;32.33;;;18.25;;
61840;SDS011;47773;53.174;6.614;2023-11-18T02:23:24;34.53;;;17.27;;
61840;SDS011;47773;53.174;6.614;2023-11-18T02:25:51;34.40;;;17.23;;
61840;SDS011;47773;53.174;6.614;2023-11-18T02:28:17;36.75;;;17.63;;
61840;SDS011;47773;53.174;6.614;2023-11-18T02:30:44;35.72;;;18.65;;
61840;SDS011;47773;53.174;6.614;2023-11-18T02:35:52;33.35;;;18.02;;
61840;SDS011;47773;53.174;6.614;2023-11-18T02:38:26;35.88;;;18.15;;
61840;SDS011;47773;53.174;6.614;2023-11-18T02:40:58;33.28;;;17.95;;
61840;SDS011;47773;53.174;6.614;2023-11-18T02:43:30;36.92;;;19.65;;
61840;SDS011;47773;53.174;6.614;2023-11-18T02:45:56;35.47;;;18.02;;
61840;SDS011;47773;53.174;6.614;2023-11-18T02:48:22;37.92;;;18.88;;
61840;SDS011;47773;53.174;6.614;2023-11-18T02:50:49;36.50;;;17.85;;
61840;SDS011;47773;53.174;6.614;2023-11-18T02:53:14;37.30;;;18.48;;
61840;SDS011;47773;53.174;6.614;2023-11-18T02:55:40;39.67;;;18.55;;
61840;SDS011;47773;53.174;6.614;2023-11-18T02:58:06;42.33;;;18.00;;
61840;SDS011;47773;53.174;6.614;2023-11-18T03:00:33;36.33;;;18.02;;
61840;SDS011;47773;53.174;6.614;2023-11-18T03:02:58;33.05;;;18.23;;
61840;SDS011;47773;53.174;6.614;2023-11-18T03:05:24;45.78;;;16.63;;
61840;SDS011;47773;53.174;6.614;2023-11-18T03:07:51;58.15;;;17.55;;
61840;SDS011;47773;53.174;6.614;2023-11-18T03:10:22;40.45;;;17.50;;
61840;SDS011;47773;53.174;6.614;2023-11-18T03:12:48;67.13;;;17.08;;
61840;SDS011;47773;53.174;6.614;2023-11-18T03:15:15;99.80;;;17.00;;
61840;SDS011;47773;53.174;6.614;2023-11-18T03:17:45;123.82;;;17.83;;
61840;SDS011;47773;53.174;6.614;2023-11-18T03:20:11;38.78;;;16.23;;
61840;SDS011;47773;53.174;6.614;2023-11-18T03:22:42;46.55;;;16.13;;
61840;SDS011;47773;53.174;6.614;2023-11-18T03:25:09;39.35;;;16.30;;
61840;SDS011;47773;53.174;6.614;2023-11-18T03:27:35;87.32;;;16.35;;
61840;SDS011;47773;53.174;6.614;2023-11-18T03:30:00;43.92;;;16.50;;
61840;SDS011;47773;53.174;6.614;2023-11-18T03:32:26;38.55;;;15.98;;
61840;SDS011;47773;53.174;6.614;2023-11-18T03:34:54;44.75;;;15.98;;
61840;SDS011;47773;53.174;6.614;2023-11-18T03:37:19;57.08;;;16.17;;
61840;SDS011;47773;53.174;6.614;2023-11-18T03:39:48;39.17;;;15.65;;
61840;SDS011;47773;53.174;6.614;2023-11-18T03:42:13;71.97;;;16.80;;
61840;SDS011;47773;53.174;6.614;2023-11-18T03:44:40;33.97;;;15.35;;
61840;SDS011;47773;53.174;6.614;2023-11-18T03:47:06;45.47;;;15.52;;
61840;SDS011;47773;53.174;6.614;2023-11-18T03:49:32;28.10;;;15.30;;
61840;SDS011;47773;53.174;6.614;2023-11-18T03:51:58;44.55;;;15.30;;
61840;SDS011;47773;53.174;6.614;2023-11-18T03:54:23;44.15;;;14.85;;
61840;SDS011;47773;53.174;6.614;2023-11-18T03:56:49;44.08;;;15.40;;
61840;SDS011;47773;53.174;6.614;2023-11-18T03:59:15;47.92;;;15.23;;
61840;SDS011;47773;53.174;6.614;2023-11-18T04:01:41;35.55;;;15.57;;
61840;SDS011;47773;53.174;6.614;2023-11-18T04:04:06;38.67;;;15.98;;
61840;SDS011;47773;53.174;6.614;2023-11-18T04:06:32;38.55;;;15.50;;
61840;SDS011;47773;53.174;6.614;2023-11-18T04:08:58;37.78;;;14.98;;
61840;SDS011;47773;53.174;6.614;2023-11-18T04:11:24;38.00;;;14.43;;
61840;SDS011;47773;53.174;6.614;2023-11-18T04:13:49;45.20;;;15.30;;
61840;SDS011;47773;53.174;6.614;2023-11-18T04:16:15;36.13;;;15.15;;
61840;SDS011;47773;53.174;6.614;2023-11-18T04:18:42;35.92;;;15.05;;
61840;SDS011;47773;53.174;6.614;2023-11-18T04:21:09;65.57;;;16.33;;
61840;SDS011;47773;53.174;6.614;2023-11-18T04:23:39;31.30;;;15.27;;
61840;SDS011;47773;53.174;6.614;2023-11-18T04:26:06;26.40;;;16.00;;
61840;SDS011;47773;53.174;6.614;2023-11-18T04:28:36;37.35;;;15.25;;
61840;SDS011;47773;53.174;6.614;2023-11-18T04:31:02;29.30;;;15.73;;
61840;SDS011;47773;53.174;6.614;2023-11-18T04:33:28;41.88;;;16.85;;
61840;SDS011;47773;53.174;6.614;2023-11-18T04:35:58;40.33;;;15.32;;
61840;SDS011;47773;53.174;6.614;2023-11-18T04:38:24;30.65;;;15.98;;
61840;SDS011;47773;53.174;6.614;2023-11-18T04:40:54;31.70;;;16.38;;
61840;SDS011;47773;53.174;6.614;2023-11-18T04:43:20;31.35;;;15.43;;
61840;SDS011;47773;53.174;6.614;2023-11-18T04:45:47;34.47;;;16.25;;
61840;SDS011;47773;53.174;6.614;2023-11-18T04:48:13;34.03;;;16.67;;
61840;SDS011;47773;53.174;6.614;2023-11-18T04:50:39;31.88;;;15.63;;
61840;SDS011;47773;53.174;6.614;2023-11-18T04:53:05;35.25;;;17.02;;
61840;SDS011;47773;53.174;6.614;2023-11-18T04:55:33;38.90;;;16.55;;
61840;SDS011;47773;53.174;6.614;2023-11-18T04:58:00;34.35;;;16.20;;
61840;SDS011;47773;53.174;6.614;2023-11-18T05:00:26;29.08;;;15.73;;
61840;SDS011;47773;53.174;6.614;2023-11-18T05:02:52;37.58;;;17.02;;
61840;SDS011;47773;53.174;6.614;2023-11-18T05:05:18;30.27;;;16.05;;
61840;SDS011;47773;53.174;6.614;2023-11-18T05:07:44;27.77;;;15.80;;
61840;SDS011;47773;53.174;6.614;2023-11-18T05:10:10;31.08;;;16.17;;
61840;SDS011;47773;53.174;6.614;2023-11-18T05:12:37;38.35;;;15.90;;
61840;SDS011;47773;53.174;6.614;2023-11-18T05:15:04;28.65;;;15.18;;
61840;SDS011;47773;53.174;6.614;2023-11-18T05:17:31;27.77;;;15.88;;
61840;SDS011;47773;53.174;6.614;2023-11-18T05:19:57;29.08;;;16.02;;
61840;SDS011;47773;53.174;6.614;2023-11-18T05:22:22;27.92;;;15.00;;
61840;SDS011;47773;53.174;6.614;2023-11-18T05:24:48;29.48;;;16.55;;
61840;SDS011;47773;53.174;6.614;2023-11-18T05:27:14;23.13;;;14.30;;
61840;SDS011;47773;53.174;6.614;2023-11-18T05:29:40;32.38;;;15.23;;
61840;SDS011;47773;53.174;6.614;2023-11-18T05:32:07;25.98;;;15.13;;
61840;SDS011;47773;53.174;6.614;2023-11-18T05:34:35;29.85;;;15.13;;
61840;SDS011;47773;53.174;6.614;2023-11-18T05:37:01;22.52;;;14.70;;
61840;SDS011;47773;53.174;6.614;2023-11-18T05:39:26;28.95;;;15.48;;
61840;SDS011;47773;53.174;6.614;2023-11-18T05:41:56;29.13;;;16.48;;
61840;SDS011;47773;53.174;6.614;2023-11-18T05:44:22;28.90;;;16.08;;
61840;SDS011;47773;53.174;6.614;2023-11-18T05:46:56;37.33;;;15.85;;
61840;SDS011;47773;53.174;6.614;2023-11-18T05:49:22;28.88;;;16.63;;
61840;SDS011;47773;53.174;6.614;2023-11-18T05:51:49;27.80;;;16.00;;
61840;SDS011;47773;53.174;6.614;2023-11-18T05:54:15;25.27;;;15.32;;
61840;SDS011;47773;53.174;6.614;2023-11-18T05:56:41;29.38;;;15.95;;
61840;SDS011;47773;53.174;6.614;2023-11-18T05:59:06;28.63;;;15.55;;
61840;SDS011;47773;53.174;6.614;2023-11-18T06:01:33;30.88;;;16.77;;
61840;SDS011;47773;53.174;6.614;2023-11-18T06:03:59;30.85;;;15.90;;
61840;SDS011;47773;53.174;6.614;2023-11-18T06:06:26;35.47;;;16.33;;
61840;SDS011;47773;53.174;6.614;2023-11-18T06:08:52;38.40;;;15.88;;
61840;SDS011;47773;53.174;6.614;2023-11-18T06:11:18;33.17;;;16.08;;
61840;SDS011;47773;53.174;6.614;2023-11-18T06:13:45;30.05;;;15.98;;
61840;SDS011;47773;53.174;6.614;2023-11-18T06:16:13;29.45;;;16.60;;
61840;SDS011;47773;53.174;6.614;2023-11-18T06:18:40;27.75;;;15.40;;
61840;SDS011;47773;53.174;6.614;2023-11-18T06:21:16;38.28;;;16.63;;
61840;SDS011;47773;53.174;6.614;2023-11-18T06:23:43;31.52;;;15.48;;
61840;SDS011;47773;53.174;6.614;2023-11-18T06:26:10;32.85;;;15.70;;
61840;SDS011;47773;53.174;6.614;2023-11-18T06:28:43;27.42;;;15.32;;
61840;SDS011;47773;53.174;6.614;2023-11-18T06:31:10;32.72;;;16.50;;
61840;SDS011;47773;53.174;6.614;2023-11-18T06:33:44;38.83;;;16.30;;
61840;SDS011;47773;53.174;6.614;2023-11-18T06:38:38;33.75;;;16.02;;
61840;SDS011;47773;53.174;6.614;2023-11-18T06:41:05;31.55;;;16.08;;
61840;SDS011;47773;53.174;6.614;2023-11-18T06:43:36;29.48;;;15.32;;
61840;SDS011;47773;53.174;6.614;2023-11-18T06:46:24;31.38;;;17.00;;
61840;SDS011;47773;53.174;6.614;2023-11-18T06:48:54;40.30;;;15.80;;
61840;SDS011;47773;53.174;6.614;2023-11-18T06:51:23;35.35;;;16.55;;
61840;SDS011;47773;53.174;6.614;2023-11-18T06:53:51;45.85;;;17.35;;
61840;SDS011;47773;53.174;6.614;2023-11-18T06:56:17;55.60;;;17.05;;
61840;SDS011;47773;53.174;6.614;2023-11-18T06:58:43;37.95;;;16.92;;
61840;SDS011;47773;53.174;6.614;2023-11-18T07:01:09;48.17;;;18.00;;
61840;SDS011;47773;53.174;6.614;2023-11-18T07:03:38;50.35;;;18.00;;
61840;SDS011;47773;53.174;6.614;2023-11-18T07:06:06;39.83;;;16.95;;
61840;SDS011;47773;53.174;6.614;2023-11-18T07:08:32;51.25;;;18.52;;
61840;SDS011;47773;53.174;6.614;2023-11-18T07:11:00;38.30;;;19.17;;
61840;SDS011;47773;53.174;6.614;2023-11-18T07:13:27;42.25;;;18.27;;
61840;SDS011;47773;53.174;6.614;2023-11-18T07:15:53;49.10;;;20.60;;
61840;SDS011;47773;53.174;6.614;2023-11-18T07:18:23;45.25;;;19.23;;
61840;SDS011;47773;53.174;6.614;2023-11-18T07:20:49;44.85;;;19.13;;
61840;SDS011;47773;53.174;6.614;2023-11-18T07:23:17;41.58;;;19.40;;
61840;SDS011;47773;53.174;6.614;2023-11-18T07:25:44;43.92;;;19.90;;
61840;SDS011;47773;53.174;6.614;2023-11-18T07:28:13;39.95;;;19.25;;
61840;SDS011;47773;53.174;6.614;2023-11-18T07:30:42;44.63;;;19.40;;
61840;SDS011;47773;53.174;6.614;2023-11-18T07:33:15;43.92;;;19.83;;
61840;SDS011;47773;53.174;6.614;2023-11-18T07:35:44;47.22;;;20.77;;
61840;SDS011;47773;53.174;6.614;2023-11-18T07:38:11;44.45;;;20.65;;
61840;SDS011;47773;53.174;6.614;2023-11-18T07:40:38;47.70;;;21.00;;
61840;SDS011;47773;53.174;6.614;2023-11-18T07:43:10;45.25;;;20.10;;
61840;SDS011;47773;53.174;6.614;2023-11-18T07:45:36;39.65;;;18.77;;
61840;SDS011;47773;53.174;6.614;2023-11-18T07:50:35;52.95;;;21.50;;
61840;SDS011;47773;53.174;6.614;2023-11-18T07:53:01;47.30;;;20.88;;
61840;SDS011;47773;53.174;6.614;2023-11-18T07:55:27;54.75;;;21.80;;
61840;SDS011;47773;53.174;6.614;2023-11-18T07:57:53;48.03;;;20.48;;
61840;SDS011;47773;53.174;6.614;2023-11-18T08:00:19;52.97;;;22.20;;
61840;SDS011;47773;53.174;6.614;2023-11-18T08:02:46;47.38;;;21.30;;
61840;SDS011;47773;53.174;6.614;2023-11-18T08:05:11;48.40;;;21.88;;
61840;SDS011;47773;53.174;6.614;2023-11-18T08:07:43;53.03;;;21.92;;
61840;SDS011;47773;53.174;6.614;2023-11-18T08:10:10;60.42;;;22.08;;
61840;SDS011;47773;53.174;6.614;2023-11-18T08:12:38;51.97;;;22.08;;
61840;SDS011;47773;53.174;6.614;2023-11-18T08:15:04;49.60;;;21.38;;
61840;SDS011;47773;53.174;6.614;2023-11-18T08:17:34;56.83;;;23.38;;
61840;SDS011;47773;53.174;6.614;2023-11-18T08:20:00;45.50;;;21.77;;
61840;SDS011;47773;53.174;6.614;2023-11-18T08:22:25;51.17;;;21.40;;
61840;SDS011;47773;53.174;6.614;2023-11-18T08:24:52;51.97;;;22.25;;
61840;SDS011;47773;53.174;6.614;2023-11-18T08:27:18;49.47;;;21.15;;
61840;SDS011;47773;53.174;6.614;2023-11-18T08:29:44;52.53;;;21.38;;
61840;SDS011;47773;53.174;6.614;2023-11-18T08:32:11;52.92;;;21.70;;
61840;SDS011;47773;53.174;6.614;2023-11-18T08:34:37;48.28;;;20.83;;
61840;SDS011;47773;53.174;6.614;2023-11-18T08:37:06;47.55;;;20.55;;
61840;SDS011;47773;53.174;6.614;2023-11-18T08:39:32;52.80;;;22.60;;
61840;SDS011;47773;53.174;6.614;2023-11-18T08:41:58;47.55;;;20.75;;
61840;SDS011;47773;53.174;6.614;2023-11-18T08:44:23;53.47;;;22.65;;
61840;SDS011;47773;53.174;6.614;2023-11-18T08:46:50;74.72;;;24.88;;
61840;SDS011;47773;53.174;6.614;2023-11-18T08:49:20;55.65;;;21.77;;
61840;SDS011;47773;53.174;6.614;2023-11-18T08:51:47;63.10;;;23.95;;
61840;SDS011;47773;53.174;6.614;2023-11-18T08:54:21;64.97;;;23.00;;
61840;SDS011;47773;53.174;6.614;2023-11-18T08:56:48;59.83;;;23.02;;
61840;SDS011;47773;53.174;6.614;2023-11-18T08:59:17;57.15;;;21.90;;
61840;SDS011;47773;53.174;6.614;2023-11-18T09:01:49;55.00;;;22.95;;
61840;SDS011;47773;53.174;6.614;2023-11-18T09:04:20;57.33;;;21.95;;
61840;SDS011;47773;53.174;6.614;2023-11-18T09:06:50;55.70;;;23.02;;
61840;SDS011;47773;53.174;6.614;2023-11-18T09:09:22;56.03;;;21.77;;
61840;SDS011;47773;53.174;6.614;2023-11-18T09:11:57;61.45;;;23.70;;
61840;SDS011;47773;53.174;6.614;2023-11-18T09:14:26;58.58;;;23.50;;
61840;SDS011;47773;53.174;6.614;2023-11-18T09:16:52;64.65;;;23.52;;
61840;SDS011;47773;53.174;6.614;2023-11-18T09:19:24;58.17;;;23.37;;
61840;SDS011;47773;53.174;6.614;2023-11-18T09:21:50;65.38;;;24.25;;
61840;SDS011;47773;53.174;6.614;2023-11-18T09:24:17;67.35;;;25.00;;
61840;SDS011;47773;53.174;6.614;2023-11-18T09:26:45;65.35;;;25.77;;
61840;SDS011;47773;53.174;6.614;2023-11-18T09:29:15;64.00;;;24.98;;
61840;SDS011;47773;53.174;6.614;2023-11-18T09:31:46;65.22;;;24.63;;
61840;SDS011;47773;53.174;6.614;2023-11-18T09:34:15;73.88;;;25.70;;
61840;SDS011;47773;53.174;6.614;2023-11-18T09:36:42;59.95;;;24.85;;
61840;SDS011;47773;53.174;6.614;2023-11-18T09:39:08;67.70;;;24.40;;
61840;SDS011;47773;53.174;6.614;2023-11-18T09:41:49;56.83;;;24.13;;
61840;SDS011;47773;53.174;6.614;2023-11-18T09:44:16;62.40;;;23.13;;
61840;SDS011;47773;53.174;6.614;2023-11-18T09:46:43;66.25;;;23.80;;
61840;SDS011;47773;53.174;6.614;2023-11-18T09:49:28;62.20;;;24.05;;
61840;SDS011;47773;53.174;6.614;2023-11-18T09:52:04;64.30;;;24.17;;
61840;SDS011;47773;53.174;6.614;2023-11-18T09:55:33;58.00;;;23.33;;
61840;SDS011;47773;53.174;6.614;2023-11-18T09:57:40;54.80;;;23.25;;
61840;SDS011;47773;53.174;6.614;2023-11-18T10:00:11;57.05;;;22.85;;
61840;SDS011;47773;53.174;6.614;2023-11-18T10:02:46;67.50;;;26.05;;
61840;SDS011;47773;53.174;6.614;2023-11-18T10:05:15;61.92;;;24.98;;
61840;SDS011;47773;53.174;6.614;2023-11-18T10:07:46;61.55;;;24.20;;
61840;SDS011;47773;53.174;6.614;2023-11-18T10:10:12;64.38;;;25.38;;
61840;SDS011;47773;53.174;6.614;2023-11-18T10:15:11;66.95;;;24.95;;
61840;SDS011;47773;53.174;6.614;2023-11-18T10:17:41;68.95;;;26.85;;
61840;SDS011;47773;53.174;6.614;2023-11-18T10:20:22;72.22;;;26.05;;
61840;SDS011;47773;53.174;6.614;2023-11-18T10:23:06;64.93;;;26.05;;
61840;SDS011;47773;53.174;6.614;2023-11-18T10:25:56;63.05;;;26.00;;
61840;SDS011;47773;53.174;6.614;2023-11-18T10:28:30;60.22;;;25.67;;
61840;SDS011;47773;53.174;6.614;2023-11-18T10:31:05;64.57;;;26.52;;
61840;SDS011;47773;53.174;6.614;2023-11-18T10:33:39;68.40;;;26.70;;
61840;SDS011;47773;53.174;6.614;2023-11-18T10:36:19;64.30;;;26.15;;
61840;SDS011;47773;53.174;6.614;2023-11-18T10:38:47;56.92;;;25.40;;
61840;SDS011;47773;53.174;6.614;2023-11-18T10:41:19;57.65;;;25.92;;
61840;SDS011;47773;53.174;6.614;2023-11-18T10:43:45;60.70;;;26.73;;
61840;SDS011;47773;53.174;6.614;2023-11-18T10:46:13;59.97;;;26.63;;
61840;SDS011;47773;53.174;6.614;2023-11-18T10:48:40;59.63;;;27.33;;
61840;SDS011;47773;53.174;6.614;2023-11-18T10:51:08;54.70;;;26.15;;
61840;SDS011;47773;53.174;6.614;2023-11-18T10:53:41;58.30;;;27.52;;
61840;SDS011;47773;53.174;6.614;2023-11-18T10:56:18;54.47;;;25.02;;
61840;SDS011;47773;53.174;6.614;2023-11-18T10:58:49;55.58;;;25.65;;
61840;SDS011;47773;53.174;6.614;2023-11-18T11:01:15;62.40;;;27.25;;
61840;SDS011;47773;53.174;6.614;2023-11-18T11:03:55;67.50;;;28.30;;
61840;SDS011;47773;53.174;6.614;2023-11-18T11:06:22;65.90;;;27.65;;
61840;SDS011;47773;53.174;6.614;2023-11-18T11:08:52;62.20;;;30.08;;
61840;SDS011;47773;53.174;6.614;2023-11-18T11:11:21;58.65;;;28.15;;
61840;SDS011;47773;53.174;6.614;2023-11-18T11:16:21;57.03;;;24.98;;
61840;SDS011;47773;53.174;6.614;2023-11-18T11:18:55;53.75;;;26.67;;
61840;SDS011;47773;53.174;6.614;2023-11-18T11:21:25;53.17;;;25.42;;
61840;SDS011;47773;53.174;6.614;2023-11-18T11:24:11;49.10;;;23.95;;
61840;SDS011;47773;53.174;6.614;2023-11-18T11:30:28;43.40;;;21.65;;
61840;SDS011;47773;53.174;6.614;2023-11-18T11:35:55;43.97;;;21.02;;
61840;SDS011;47773;53.174;6.614;2023-11-18T11:38:22;42.58;;;21.00;;
61840;SDS011;47773;53.174;6.614;2023-11-18T11:40:49;41.72;;;21.30;;
61840;SDS011;47773;53.174;6.614;2023-11-18T11:43:18;37.90;;;19.27;;
61840;SDS011;47773;53.174;6.614;2023-11-18T11:45:48;38.55;;;19.65;;
61840;SDS011;47773;53.174;6.614;2023-11-18T11:48:16;41.80;;;20.25;;
61840;SDS011;47773;53.174;6.614;2023-11-18T11:53:22;40.10;;;18.85;;
61840;SDS011;47773;53.174;6.614;2023-11-18T11:55:52;37.08;;;18.63;;
61840;SDS011;47773;53.174;6.614;2023-11-18T11:58:31;39.63;;;18.67;;
61840;SDS011;47773;53.174;6.614;2023-11-18T12:01:21;38.58;;;18.52;;
61840;SDS011;47773;53.174;6.614;2023-11-18T12:03:57;35.38;;;17.55;;
61840;SDS011;47773;53.174;6.614;2023-11-18T12:06:26;33.88;;;16.88;;
61840;SDS011;47773;53.174;6.614;2023-11-18T12:08:53;32.75;;;16.08;;
61840;SDS011;47773;53.174;6.614;2023-11-18T12:11:20;34.83;;;15.48;;
61840;SDS011;47773;53.174;6.614;2023-11-18T12:14:00;36.85;;;15.50;;
61840;SDS011;47773;53.174;6.614;2023-11-18T12:17:20;26.13;;;14.05;;
61840;SDS011;47773;53.174;6.614;2023-11-18T12:19:32;28.15;;;14.43;;
61840;SDS011;47773;53.174;6.614;2023-11-18T12:22:02;30.08;;;13.95;;
61840;SDS011;47773;53.174;6.614;2023-11-18T12:24:38;25.75;;;13.18;;
61840;SDS011;47773;53.174;6.614;2023-11-18T12:27:04;26.48;;;13.23;;
61840;SDS011;47773;53.174;6.614;2023-11-18T12:29:41;25.75;;;13.38;;
61840;SDS011;47773;53.174;6.614;2023-11-18T12:32:10;27.05;;;13.40;;
61840;SDS011;47773;53.174;6.614;2023-11-18T12:34:53;26.17;;;12.52;;
61840;SDS011;47773;53.174;6.614;2023-11-18T12:43:29;29.13;;;12.82;;
61840;SDS011;47773;53.174;6.614;2023-11-18T12:49:02;26.40;;;13.52;;
61840;SDS011;47773;53.174;6.614;2023-11-18T12:51:28;26.65;;;12.93;;
61840;SDS011;47773;53.174;6.614;2023-11-18T12:53:56;25.15;;;13.65;;
61840;SDS011;47773;53.174;6.614;2023-11-18T12:56:23;29.02;;;13.20;;
61840;SDS011;47773;53.174;6.614;2023-11-18T12:58:51;24.30;;;13.18;;
61840;SDS011;47773;53.174;6.614;2023-11-18T13:01:16;26.95;;;13.48;;
61840;SDS011;47773;53.174;6.614;2023-11-18T13:03:44;25.65;;;13.20;;
61840;SDS011;47773;53.174;6.614;2023-11-18T13:06:10;25.15;;;13.32;;
61840;SDS011;47773;53.174;6.614;2023-11-18T13:08:42;27.05;;;14.02;;
61840;SDS011;47773;53.174;6.614;2023-11-18T13:11:08;23.63;;;13.05;;
61840;SDS011;47773;53.174;6.614;2023-11-18T13:13:43;25.35;;;12.88;;
61840;SDS011;47773;53.174;6.614;2023-11-18T13:16:12;26.05;;;11.90;;
61840;SDS011;47773;53.174;6.614;2023-11-18T13:18:46;25.95;;;13.07;;
61840;SDS011;47773;53.174;6.614;2023-11-18T13:21:17;24.10;;;13.10;;
61840;SDS011;47773;53.174;6.614;2023-11-18T13:23:47;24.83;;;12.95;;
61840;SDS011;47773;53.174;6.614;2023-11-18T13:26:15;24.77;;;13.52;;
61840;SDS011;47773;53.174;6.614;2023-11-18T13:28:41;25.05;;;13.60;;
61840;SDS011;47773;53.174;6.614;2023-11-18T13:31:09;24.02;;;13.15;;
61840;SDS011;47773;53.174;6.614;2023-11-18T13:33:41;22.77;;;13.65;;
61840;SDS011;47773;53.174;6.614;2023-11-18T13:36:16;26.63;;;13.23;;
61840;SDS011;47773;53.174;6.614;2023-11-18T13:38:42;27.58;;;13.27;;
61840;SDS011;47773;53.174;6.614;2023-11-18T13:41:09;26.85;;;13.73;;
61840;SDS011;47773;53.174;6.614;2023-11-18T13:43:43;28.80;;;14.00;;
61840;SDS011;47773;53.174;6.614;2023-11-18T13:46:13;24.70;;;13.20;;
61840;SDS011;47773;53.174;6.614;2023-11-18T13:48:40;24.15;;;12.48;;
61840;SDS011;47773;53.174;6.614;2023-11-18T13:51:09;24.88;;;12.27;;
61840;SDS011;47773;53.174;6.614;2023-11-18T13:53:40;25.08;;;13.50;;
61840;SDS011;47773;53.174;6.614;2023-11-18T13:56:09;26.60;;;13.38;;
61840;SDS011;47773;53.174;6.614;2023-11-18T13:58:35;21.73;;;12.30;;
61840;SDS011;47773;53.174;6.614;2023-11-18T14:01:07;24.00;;;12.63;;
61840;SDS011;47773;53.174;6.614;2023-11-18T14:03:35;21.45;;;11.48;;
61840;SDS011;47773;53.174;6.614;2023-11-18T14:06:02;23.10;;;12.30;;
61840;SDS011;47773;53.174;6.614;2023-11-18T14:08:30;23.52;;;12.07;;
61840;SDS011;47773;53.174;6.614;2023-11-18T14:10:56;21.67;;;11.68;;
61840;SDS011;47773;53.174;6.614;2023-11-18T14:13:21;21.65;;;11.23;;
61840;SDS011;47773;53.174;6.614;2023-11-18T14:15:48;19.42;;;10.43;;
61840;SDS011;47773;53.174;6.614;2023-11-18T14:18:20;18.83;;;11.07;;
61840;SDS011;47773;53.174;6.614;2023-11-18T14:20:46;20.77;;;11.32;;
61840;SDS011;47773;53.174;6.614;2023-11-18T14:23:13;24.23;;;11.18;;
61840;SDS011;47773;53.174;6.614;2023-11-18T14:25:39;24.58;;;11.70;;
61840;SDS011;47773;53.174;6.614;2023-11-18T14:28:04;24.15;;;11.30;;
61840;SDS011;47773;53.174;6.614;2023-11-18T14:30:33;20.50;;;11.63;;
61840;SDS011;47773;53.174;6.614;2023-11-18T14:32:59;24.08;;;10.80;;
61840;SDS011;47773;53.174;6.614;2023-11-18T14:35:25;20.48;;;10.90;;
61840;SDS011;47773;53.174;6.614;2023-11-18T14:37:51;21.90;;;10.85;;
61840;SDS011;47773;53.174;6.614;2023-11-18T14:40:16;21.73;;;11.48;;
61840;SDS011;47773;53.174;6.614;2023-11-18T14:42:43;23.75;;;10.20;;
61840;SDS011;47773;53.174;6.614;2023-11-18T14:45:11;21.00;;;10.70;;
61840;SDS011;47773;53.174;6.614;2023-11-18T14:47:41;21.80;;;10.65;;
61840;SDS011;47773;53.174;6.614;2023-11-18T14:50:10;22.92;;;11.50;;
61840;SDS011;47773;53.174;6.614;2023-11-18T14:52:45;20.10;;;10.27;;
61840;SDS011;47773;53.174;6.614;2023-11-18T14:55:23;24.73;;;11.02;;
61840;SDS011;47773;53.174;6.614;2023-11-18T14:57:50;23.58;;;11.77;;
61840;SDS011;47773;53.174;6.614;2023-11-18T15:00:16;26.92;;;11.05;;
61840;SDS011;47773;53.174;6.614;2023-11-18T15:02:47;17.85;;;9.85;;